| time (UTC) | temp C | wind direction | speed KPH | gust KPH | rain 1hr cm | rain 24hr cm | rain mn cm | humidity % | barometer mb |
| 20260903084110 | 19 | 14 | 3.2 | 8.0 | 0.00 | 0.00 | 0.00 | 66 | 1022.2 |
| 20260903081111 | 19 | 335 | 3.2 | 8.0 | 0.00 | 0.00 | 0.00 | 65 | 1023.3 |
| 20260903074111 | 18 | 151 | 3.2 | 8.0 | 0.00 | 0.00 | 0.00 | 69 | 1023.6 |
| 20260903071111 | 17 | 167 | 6.4 | 11.3 | 0.00 | 0.00 | 0.00 | 75 | 1023.9 |
| 20260903064110 | 15 | 265 | 3.2 | 6.4 | 0.00 | 0.00 | 0.00 | 84 | 1024.3 |
| 20260903061111 | 15 | 3 | 3.2 | 4.8 | 0.00 | 0.00 | 0.00 | 86 | 1024.5 |
| 20260903054110 | 15 | 344 | 1.6 | 4.8 | 0.00 | 0.00 | 0.00 | 85 | 1023.4 |
| 20260903051111 | 15 | 66 | 3.2 | 6.4 | 0.00 | 0.00 | 0.00 | 85 | 1023.4 |
| 20260903044110 | 15 | 121 | 3.2 | 8.0 | 0.00 | 0.00 | 0.00 | 86 | 1023.4 |
| 20260903041110 | 15 | 52 | 3.2 | 8.0 | 0.00 | 0.00 | 0.00 | 85 | 1023.4 |
| 20260903031111 | 15 | 156 | 1.6 | 4.8 | 0.00 | 0.00 | 0.00 | 85 | 1023.4 |
| 20260903021110 | 15 | 49 | 1.6 | 4.8 | 0.00 | 0.00 | 0.00 | 84 | 1023.3 |
| 20260903014110 | 15 | 299 | 1.6 | 4.8 | 0.00 | 0.00 | 0.00 | 82 | 1023.2 |
| 20260903011111 | 15 | 61 | 3.2 | 6.4 | 0.00 | 0.00 | 0.00 | 81 | 1023.2 |
| 20260903004111 | 16 | 238 | 3.2 | 9.7 | 0.00 | 0.00 | 0.00 | 80 | 1023.1 |
| 20260903001510 | 16 | 149 | 1.6 | 8.0 | 0.00 | 0.00 | 0.00 | 80 | 1023.1 |
| 20260902234111 | 16 | 41 | 3.2 | 6.4 | 0.00 | 0.00 | 0.00 | 79 | 1023.1 |
| 20260902224111 | 16 | 43 | 1.6 | 6.4 | 0.00 | 0.00 | 0.00 | 76 | 1021.8 |
| 20260902221111 | 17 | 10 | 1.6 | 6.4 | 0.00 | 0.00 | 0.00 | 74 | 1021.7 |
| 20260902214111 | 17 | 185 | 3.2 | 6.4 | 0.00 | 0.00 | 0.00 | 72 | 1021.6 |
| 20260902211111 | 18 | 174 | 9.7 | 22.5 | 0.00 | 0.00 | 0.00 | 69 | 1021.4 |
| 20260902204112 | 18 | 178 | 6.4 | 16.1 | 0.00 | 0.00 | 0.00 | 69 | 1021.4 |
| 20260902201111 | 18 | 162 | 6.4 | 16.1 | 0.00 | 0.00 | 0.00 | 69 | 1021.3 |
| 20260902194111 | 19 | 174 | 9.7 | 22.5 | 0.00 | 0.00 | 0.00 | 68 | 1021.2 |
| 20260902191111 | 20 | 174 | 3.2 | 16.1 | 0.00 | 0.00 | 0.00 | 67 | 1021.1 |
| 20260902184111 | 20 | 153 | 3.2 | 6.4 | 0.00 | 0.00 | 0.00 | 66 | 1019.9 |
| 20260902181111 | 21 | 169 | 3.2 | 8.0 | 0.00 | 0.00 | 0.00 | 61 | 1018.6 |
| 20260902174111 | 22 | 331 | 3.2 | 11.3 | 0.00 | 0.00 | 0.00 | 56 | 1018.3 |
| 20260902171111 | 22 | 12 | 9.7 | 19.3 | 0.00 | 0.00 | 0.00 | 53 | 1018.2 |
| 20260902164111 | 24 | 4 | 12.9 | 20.9 | 0.00 | 0.00 | 0.00 | 48 | 1016.8 |
| 20260902161111 | 25 | 354 | 11.3 | 20.9 | 0.00 | 0.00 | 0.00 | 44 | 1016.6 |
| 20260902154111 | 25 | 344 | 12.9 | 20.9 | 0.00 | 0.00 | 0.00 | 43 | 1016.4 |
| 20260902151111 | 25 | 346 | 14.5 | 24.1 | 0.00 | 0.00 | 0.00 | 44 | 1017.5 |
| 20260902144111 | 25 | 355 | 14.5 | 24.1 | 0.00 | 0.00 | 0.00 | 45 | 1017.6 |
| 20260902141111 | 25 | 4 | 14.5 | 25.7 | 0.00 | 0.00 | 0.00 | 47 | 1017.7 |
| 20260902134110 | 24 | 10 | 14.5 | 24.1 | 0.00 | 0.00 | 0.00 | 47 | 1017.7 |
| 20260902131111 | 25 | 17 | 9.7 | 22.5 | 0.00 | 0.00 | 0.00 | 43 | 1017.6 |
| 20260902124110 | 25 | 11 | 8.0 | 14.5 | 0.00 | 0.00 | 0.00 | 42 | 1017.7 |
| 20260902121111 | 25 | 15 | 6.4 | 11.3 | 0.00 | 0.00 | 0.00 | 45 | 1017.7 |
| 20260902114111 | 25 | 28 | 3.2 | 8.0 | 0.00 | 0.00 | 0.00 | 43 | 1018.7 |
| 20260902111111 | 23 | 357 | 3.2 | 9.7 | 0.00 | 0.00 | 0.00 | 47 | 1019.1 |
| 20260902104111 | 22 | 1 | 3.2 | 9.7 | 0.00 | 0.00 | 0.00 | 51 | 1020.5 |
| 20260902101111 | 21 | 43 | 3.2 | 8.0 | 0.00 | 0.00 | 0.00 | 56 | 1020.6 |
| 20260902094111 | 20 | 5 | 3.2 | 8.0 | 0.00 | 0.00 | 0.00 | 60 | 1020.9 |
| 20260902091110 | 19 | 351 | 3.2 | 8.0 | 0.00 | 0.00 | 0.00 | 64 | 1022.2 |